sensor_id;sensor_type;location;lat;lon;timestamp;P1;P2;P0
77538;PMS7003;67783;51.656;16.106;2023-04-24T00:01:43;2;2;2
77538;PMS7003;67783;51.656;16.106;2023-04-24T00:04:44;6;6;3
77538;PMS7003;67783;51.656;16.106;2023-04-24T00:07:53;2;2;2
77538;PMS7003;67783;51.656;16.106;2023-04-24T00:10:56;4;2;2
77538;PMS7003;67783;51.656;16.106;2023-04-24T00:13:57;1;1;1
77538;PMS7003;67783;51.656;16.106;2023-04-24T00:16:59;3;3;2
77538;PMS7003;67783;51.656;16.106;2023-04-24T00:20:02;4;2;2
77538;PMS7003;67783;51.656;16.106;2023-04-24T00:23:14;1;1;1
77538;PMS7003;67783;51.656;16.106;2023-04-24T00:26:15;3;3;2
77538;PMS7003;67783;51.656;16.106;2023-04-24T00:29:17;5;3;3
77538;PMS7003;67783;51.656;16.106;2023-04-24T00:32:18;4;3;3
77538;PMS7003;67783;51.656;16.106;2023-04-24T00:35:20;0;0;0
77538;PMS7003;67783;51.656;16.106;2023-04-24T00:38:22;1;1;1
77538;PMS7003;67783;51.656;16.106;2023-04-24T00:41:26;2;1;1
77538;PMS7003;67783;51.656;16.106;2023-04-24T00:44:28;3;3;2
77538;PMS7003;67783;51.656;16.106;2023-04-24T00:47:30;2;2;2
77538;PMS7003;67783;51.656;16.106;2023-04-24T00:50:35;1;1;1
77538;PMS7003;67783;51.656;16.106;2023-04-24T00:53:37;2;2;1
77538;PMS7003;67783;51.656;16.106;2023-04-24T00:56:39;2;2;1
77538;PMS7003;67783;51.656;16.106;2023-04-24T00:59:49;3;2;2
77538;PMS7003;67783;51.656;16.106;2023-04-24T01:02:51;1;1;1
77538;PMS7003;67783;51.656;16.106;2023-04-24T01:05:54;1;1;1
77538;PMS7003;67783;51.656;16.106;2023-04-24T01:08:57;2;2;2
77538;PMS7003;67783;51.656;16.106;2023-04-24T01:12:01;2;2;1
77538;PMS7003;67783;51.656;16.106;2023-04-24T01:15:10;0;0;0
77538;PMS7003;67783;51.656;16.106;2023-04-24T01:18:11;1;1;1
77538;PMS7003;67783;51.656;16.106;2023-04-24T01:21:14;3;3;2
77538;PMS7003;67783;51.656;16.106;2023-04-24T01:24:20;1;1;1
77538;PMS7003;67783;51.656;16.106;2023-04-24T01:27:21;2;2;2
77538;PMS7003;67783;51.656;16.106;2023-04-24T01:30:30;1;1;1
77538;PMS7003;67783;51.656;16.106;2023-04-24T01:33:32;3;3;1
77538;PMS7003;67783;51.656;16.106;2023-04-24T01:36:34;2;2;1
77538;PMS7003;67783;51.656;16.106;2023-04-24T01:39:37;5;2;1
77538;PMS7003;67783;51.656;16.106;2023-04-24T01:42:40;2;2;2
77538;PMS7003;67783;51.656;16.106;2023-04-24T01:45:51;1;1;1
77538;PMS7003;67783;51.656;16.106;2023-04-24T01:48:52;4;1;1
77538;PMS7003;67783;51.656;16.106;2023-04-24T01:51:55;2;2;1
77538;PMS7003;67783;51.656;16.106;2023-04-24T01:54:59;2;2;2
77538;PMS7003;67783;51.656;16.106;2023-04-24T01:58:01;5;3;2
77538;PMS7003;67783;51.656;16.106;2023-04-24T02:01:20;1;1;1
77538;PMS7003;67783;51.656;16.106;2023-04-24T02:04:22;5;3;2
77538;PMS7003;67783;51.656;16.106;2023-04-24T02:07:23;4;1;1
77538;PMS7003;67783;51.656;16.106;2023-04-24T02:10:25;2;1;1
77538;PMS7003;67783;51.656;16.106;2023-04-24T02:13:27;2;2;1
77538;PMS7003;67783;51.656;16.106;2023-04-24T02:16:32;3;2;1
77538;PMS7003;67783;51.656;16.106;2023-04-24T02:19:34;2;2;1
77538;PMS7003;67783;51.656;16.106;2023-04-24T02:22:36;6;5;3
77538;PMS7003;67783;51.656;16.106;2023-04-24T02:25:37;3;3;2
77538;PMS7003;67783;51.656;16.106;2023-04-24T02:28:39;2;2;1
77538;PMS7003;67783;51.656;16.106;2023-04-24T02:31:40;3;3;2
77538;PMS7003;67783;51.656;16.106;2023-04-24T02:34:42;5;3;2
77538;PMS7003;67783;51.656;16.106;2023-04-24T02:37:46;3;3;2
77538;PMS7003;67783;51.656;16.106;2023-04-24T02:40:48;3;3;2
77538;PMS7003;67783;51.656;16.106;2023-04-24T02:43:50;4;2;1
77538;PMS7003;67783;51.656;16.106;2023-04-24T02:46:51;4;3;3
77538;PMS7003;67783;51.656;16.106;2023-04-24T02:49:53;6;3;2
77538;PMS7003;67783;51.656;16.106;2023-04-24T02:52:54;4;4;3
77538;PMS7003;67783;51.656;16.106;2023-04-24T02:55:56;4;4;3
77538;PMS7003;67783;51.656;16.106;2023-04-24T02:59:01;3;2;2
77538;PMS7003;67783;51.656;16.106;2023-04-24T03:02:03;3;2;2
77538;PMS7003;67783;51.656;16.106;2023-04-24T03:05:06;4;4;3
77538;PMS7003;67783;51.656;16.106;2023-04-24T03:08:09;3;3;2
77538;PMS7003;67783;51.656;16.106;2023-04-24T03:11:11;4;3;2
77538;PMS7003;67783;51.656;16.106;2023-04-24T03:14:22;3;3;3
77538;PMS7003;67783;51.656;16.106;2023-04-24T03:17:23;3;3;3
77538;PMS7003;67783;51.656;16.106;2023-04-24T03:20:25;2;2;2
77538;PMS7003;67783;51.656;16.106;2023-04-24T03:23:27;4;4;3
77538;PMS7003;67783;51.656;16.106;2023-04-24T03:26:28;5;3;3
77538;PMS7003;67783;51.656;16.106;2023-04-24T03:29:30;6;3;2
77538;PMS7003;67783;51.656;16.106;2023-04-24T03:32:32;3;3;2
77538;PMS7003;67783;51.656;16.106;2023-04-24T03:35:37;4;3;2
77538;PMS7003;67783;51.656;16.106;2023-04-24T03:38:38;3;3;2
77538;PMS7003;67783;51.656;16.106;2023-04-24T03:41:40;3;3;2
77538;PMS7003;67783;51.656;16.106;2023-04-24T03:44:42;5;5;3
77538;PMS7003;67783;51.656;16.106;2023-04-24T03:47:43;7;5;3
77538;PMS7003;67783;51.656;16.106;2023-04-24T03:50:45;5;5;3
77538;PMS7003;67783;51.656;16.106;2023-04-24T03:53:46;5;3;2
77538;PMS7003;67783;51.656;16.106;2023-04-24T03:56:51;6;3;3
77538;PMS7003;67783;51.656;16.106;2023-04-24T03:59:53;5;4;3
77538;PMS7003;67783;51.656;16.106;2023-04-24T04:02:54;4;3;3
77538;PMS7003;67783;51.656;16.106;2023-04-24T04:05:56;3;3;3
77538;PMS7003;67783;51.656;16.106;2023-04-24T04:08:57;5;4;3
77538;PMS7003;67783;51.656;16.106;2023-04-24T04:12:00;5;5;4
77538;PMS7003;67783;51.656;16.106;2023-04-24T04:15:01;5;5;3
77538;PMS7003;67783;51.656;16.106;2023-04-24T04:18:06;4;3;3
77538;PMS7003;67783;51.656;16.106;2023-04-24T04:21:09;3;3;3
77538;PMS7003;67783;51.656;16.106;2023-04-24T04:24:10;6;4;3
77538;PMS7003;67783;51.656;16.106;2023-04-24T04:27:12;4;3;2
77538;PMS7003;67783;51.656;16.106;2023-04-24T04:30:14;5;4;3
77538;PMS7003;67783;51.656;16.106;2023-04-24T04:33:16;5;3;2
77538;PMS7003;67783;51.656;16.106;2023-04-24T04:36:18;6;6;4
77538;PMS7003;67783;51.656;16.106;2023-04-24T04:39:23;4;4;3
77538;PMS7003;67783;51.656;16.106;2023-04-24T04:42:25;5;5;3
77538;PMS7003;67783;51.656;16.106;2023-04-24T04:45:28;7;6;4
77538;PMS7003;67783;51.656;16.106;2023-04-24T04:48:33;4;4;3
77538;PMS7003;67783;51.656;16.106;2023-04-24T04:51:34;9;9;6
77538;PMS7003;67783;51.656;16.106;2023-04-24T04:54:44;17;6;5
77538;PMS7003;67783;51.656;16.106;2023-04-24T04:57:46;7;6;3
77538;PMS7003;67783;51.656;16.106;2023-04-24T05:00:48;6;5;4
77538;PMS7003;67783;51.656;16.106;2023-04-24T05:03:50;6;5;3
77538;PMS7003;67783;51.656;16.106;2023-04-24T05:06:51;5;4;2
77538;PMS7003;67783;51.656;16.106;2023-04-24T05:09:53;3;3;2
77538;PMS7003;67783;51.656;16.106;2023-04-24T05:12:55;4;4;4
77538;PMS7003;67783;51.656;16.106;2023-04-24T05:16:00;4;4;3
77538;PMS7003;67783;51.656;16.106;2023-04-24T05:19:01;4;4;4
77538;PMS7003;67783;51.656;16.106;2023-04-24T05:22:03;3;3;2
77538;PMS7003;67783;51.656;16.106;2023-04-24T05:25:07;1;1;1
77538;PMS7003;67783;51.656;16.106;2023-04-24T05:28:09;2;2;2
77538;PMS7003;67783;51.656;16.106;2023-04-24T05:31:20;3;1;1
77538;PMS7003;67783;51.656;16.106;2023-04-24T05:34:22;1;1;0
77538;PMS7003;67783;51.656;16.106;2023-04-24T05:37:24;1;1;0
77538;PMS7003;67783;51.656;16.106;2023-04-24T05:40:26;1;1;1
77538;PMS7003;67783;51.656;16.106;2023-04-24T05:43:28;2;1;1
77538;PMS7003;67783;51.656;16.106;2023-04-24T05:46:30;1;1;1
77538;PMS7003;67783;51.656;16.106;2023-04-24T05:49:31;3;2;2
77538;PMS7003;67783;51.656;16.106;2023-04-24T05:52:36;1;1;1
77538;PMS7003;67783;51.656;16.106;2023-04-24T05:55:38;1;1;1
77538;PMS7003;67783;51.656;16.106;2023-04-24T05:58:39;5;2;2
77538;PMS7003;67783;51.656;16.106;2023-04-24T06:01:41;2;1;1
77538;PMS7003;67783;51.656;16.106;2023-04-24T06:04:43;2;2;2
77538;PMS7003;67783;51.656;16.106;2023-04-24T06:07:45;3;3;2
77538;PMS7003;67783;51.656;16.106;2023-04-24T06:10:47;1;1;1
77538;PMS7003;67783;51.656;16.106;2023-04-24T06:13:52;2;2;1
77538;PMS7003;67783;51.656;16.106;2023-04-24T06:16:54;0;0;0
77538;PMS7003;67783;51.656;16.106;2023-04-24T06:19:55;2;2;1
77538;PMS7003;67783;51.656;16.106;2023-04-24T06:22:57;1;1;1
77538;PMS7003;67783;51.656;16.106;2023-04-24T06:25:59;1;1;1
77538;PMS7003;67783;51.656;16.106;2023-04-24T06:29:00;2;2;1
77538;PMS7003;67783;51.656;16.106;2023-04-24T06:32:02;4;1;1
77538;PMS7003;67783;51.656;16.106;2023-04-24T06:35:07;0;0;0
77538;PMS7003;67783;51.656;16.106;2023-04-24T06:38:12;5;1;1
77538;PMS7003;67783;51.656;16.106;2023-04-24T06:41:13;1;0;0
77538;PMS7003;67783;51.656;16.106;2023-04-24T06:44:15;1;1;1
77538;PMS7003;67783;51.656;16.106;2023-04-24T06:47:17;0;0;0
77538;PMS7003;67783;51.656;16.106;2023-04-24T06:50:28;0;0;0
77538;PMS7003;67783;51.656;16.106;2023-04-24T06:53:29;0;0;0
77538;PMS7003;67783;51.656;16.106;2023-04-24T06:56:31;0;0;0
77538;PMS7003;67783;51.656;16.106;2023-04-24T06:59:35;0;0;0
77538;PMS7003;67783;51.656;16.106;2023-04-24T07:02:36;4;0;0
77538;PMS7003;67783;51.656;16.106;2023-04-24T07:05:48;1;1;0
77538;PMS7003;67783;51.656;16.106;2023-04-24T07:08:50;1;1;1
77538;PMS7003;67783;51.656;16.106;2023-04-24T07:11:51;0;0;0
77538;PMS7003;67783;51.656;16.106;2023-04-24T07:14:54;0;0;0
77538;PMS7003;67783;51.656;16.106;2023-04-24T07:17:56;1;1;0
77538;PMS7003;67783;51.656;16.106;2023-04-24T07:20:57;0;0;0
77538;PMS7003;67783;51.656;16.106;2023-04-24T07:23:59;0;0;0
77538;PMS7003;67783;51.656;16.106;2023-04-24T07:27:04;0;0;0
77538;PMS7003;67783;51.656;16.106;2023-04-24T07:30:06;1;0;0
77538;PMS7003;67783;51.656;16.106;2023-04-24T07:33:08;0;0;0
77538;PMS7003;67783;51.656;16.106;2023-04-24T07:36:13;0;0;0
77538;PMS7003;67783;51.656;16.106;2023-04-24T07:39:19;0;0;0
77538;PMS7003;67783;51.656;16.106;2023-04-24T07:42:24;0;0;0
77538;PMS7003;67783;51.656;16.106;2023-04-24T07:45:26;0;0;0
77538;PMS7003;67783;51.656;16.106;2023-04-24T07:48:29;0;0;0
77538;PMS7003;67783;51.656;16.106;2023-04-24T07:51:30;1;1;0
77538;PMS7003;67783;51.656;16.106;2023-04-24T07:54:38;0;0;0
77538;PMS7003;67783;51.656;16.106;2023-04-24T07:57:45;0;0;0
77538;PMS7003;67783;51.656;16.106;2023-04-24T08:00:47;1;1;1
77538;PMS7003;67783;51.656;16.106;2023-04-24T08:03:48;0;0;0
77538;PMS7003;67783;51.656;16.106;2023-04-24T08:06:51;0;0;0
77538;PMS7003;67783;51.656;16.106;2023-04-24T08:09:52;2;0;0
77538;PMS7003;67783;51.656;16.106;2023-04-24T08:12:54;0;0;0
77538;PMS7003;67783;51.656;16.106;2023-04-24T08:15:56;0;0;0
77538;PMS7003;67783;51.656;16.106;2023-04-24T08:19:01;1;1;0
77538;PMS7003;67783;51.656;16.106;2023-04-24T08:22:03;0;0;0
77538;PMS7003;67783;51.656;16.106;2023-04-24T08:25:05;4;0;0
77538;PMS7003;67783;51.656;16.106;2023-04-24T08:28:08;0;0;0
77538;PMS7003;67783;51.656;16.106;2023-04-24T08:31:11;0;0;0
77538;PMS7003;67783;51.656;16.106;2023-04-24T08:34:22;0;0;0
77538;PMS7003;67783;51.656;16.106;2023-04-24T08:37:24;0;0;0
77538;PMS7003;67783;51.656;16.106;2023-04-24T08:40:27;0;0;0
77538;PMS7003;67783;51.656;16.106;2023-04-24T08:43:32;0;0;0
77538;PMS7003;67783;51.656;16.106;2023-04-24T08:46:37;0;0;0
77538;PMS7003;67783;51.656;16.106;2023-04-24T08:49:42;0;0;0
77538;PMS7003;67783;51.656;16.106;2023-04-24T08:52:44;0;0;0
77538;PMS7003;67783;51.656;16.106;2023-04-24T08:55:46;0;0;0
77538;PMS7003;67783;51.656;16.106;2023-04-24T08:58:50;0;0;0
77538;PMS7003;67783;51.656;16.106;2023-04-24T09:01:53;0;0;0
77538;PMS7003;67783;51.656;16.106;2023-04-24T09:05:03;0;0;0
77538;PMS7003;67783;51.656;16.106;2023-04-24T09:08:06;0;0;0
77538;PMS7003;67783;51.656;16.106;2023-04-24T09:11:09;1;1;0
77538;PMS7003;67783;51.656;16.106;2023-04-24T09:14:12;5;0;0
77538;PMS7003;67783;51.656;16.106;2023-04-24T09:17:14;0;0;0
77538;PMS7003;67783;51.656;16.106;2023-04-24T09:20:23;1;0;0
77538;PMS7003;67783;51.656;16.106;2023-04-24T09:23:25;0;0;0
77538;PMS7003;67783;51.656;16.106;2023-04-24T09:26:29;0;0;0
77538;PMS7003;67783;51.656;16.106;2023-04-24T09:29:34;0;0;0
77538;PMS7003;67783;51.656;16.106;2023-04-24T09:32:36;0;0;0
77538;PMS7003;67783;51.656;16.106;2023-04-24T09:38:57;0;0;0
77538;PMS7003;67783;51.656;16.106;2023-04-24T09:42:00;1;0;0
77538;PMS7003;67783;51.656;16.106;2023-04-24T09:45:10;1;1;0
77538;PMS7003;67783;51.656;16.106;2023-04-24T09:48:12;0;0;0
77538;PMS7003;67783;51.656;16.106;2023-04-24T09:51:14;0;0;0
77538;PMS7003;67783;51.656;16.106;2023-04-24T09:54:20;0;0;0
77538;PMS7003;67783;51.656;16.106;2023-04-24T09:57:22;0;0;0
77538;PMS7003;67783;51.656;16.106;2023-04-24T10:00:31;0;0;0
77538;PMS7003;67783;51.656;16.106;2023-04-24T10:03:34;0;0;0
77538;PMS7003;67783;51.656;16.106;2023-04-24T10:06:37;0;0;0
77538;PMS7003;67783;51.656;16.106;2023-04-24T10:09:39;0;0;0
77538;PMS7003;67783;51.656;16.106;2023-04-24T10:12:41;0;0;0
77538;PMS7003;67783;51.656;16.106;2023-04-24T10:15:51;0;0;0
77538;PMS7003;67783;51.656;16.106;2023-04-24T10:18:53;0;0;0
77538;PMS7003;67783;51.656;16.106;2023-04-24T10:21:56;0;0;0
77538;PMS7003;67783;51.656;16.106;2023-04-24T10:24:59;0;0;0
77538;PMS7003;67783;51.656;16.106;2023-04-24T10:28:01;0;0;0
77538;PMS7003;67783;51.656;16.106;2023-04-24T10:31:12;0;0;0
77538;PMS7003;67783;51.656;16.106;2023-04-24T10:34:15;0;0;0
77538;PMS7003;67783;51.656;16.106;2023-04-24T10:37:19;0;0;0
77538;PMS7003;67783;51.656;16.106;2023-04-24T10:43:31;0;0;0
77538;PMS7003;67783;51.656;16.106;2023-04-24T10:46:36;0;0;0
77538;PMS7003;67783;51.656;16.106;2023-04-24T10:49:39;0;0;0
77538;PMS7003;67783;51.656;16.106;2023-04-24T10:52:45;0;0;0
77538;PMS7003;67783;51.656;16.106;2023-04-24T10:56:06;0;0;0
77538;PMS7003;67783;51.656;16.106;2023-04-24T10:59:10;0;0;0
77538;PMS7003;67783;51.656;16.106;2023-04-24T11:02:17;0;0;0
77538;PMS7003;67783;51.656;16.106;2023-04-24T11:08:43;0;0;0
77538;PMS7003;67783;51.656;16.106;2023-04-24T11:11:46;0;0;0
77538;PMS7003;67783;51.656;16.106;2023-04-24T11:14:59;0;0;0
77538;PMS7003;67783;51.656;16.106;2023-04-24T11:18:02;0;0;0
77538;PMS7003;67783;51.656;16.106;2023-04-24T11:21:13;0;0;0
77538;PMS7003;67783;51.656;16.106;2023-04-24T11:24:25;0;0;0
77538;PMS7003;67783;51.656;16.106;2023-04-24T11:30:42;0;0;0
77538;PMS7003;67783;51.656;16.106;2023-04-24T11:33:48;0;0;0
77538;PMS7003;67783;51.656;16.106;2023-04-24T11:36:50;0;0;0
77538;PMS7003;67783;51.656;16.106;2023-04-24T11:39:56;0;0;0
77538;PMS7003;67783;51.656;16.106;2023-04-24T11:42:59;0;0;0
77538;PMS7003;67783;51.656;16.106;2023-04-24T11:46:02;0;0;0
77538;PMS7003;67783;51.656;16.106;2023-04-24T11:49:08;0;0;0
77538;PMS7003;67783;51.656;16.106;2023-04-24T11:52:10;0;0;0
77538;PMS7003;67783;51.656;16.106;2023-04-24T11:58:35;0;0;0
77538;PMS7003;67783;51.656;16.106;2023-04-24T12:01:45;0;0;0
77538;PMS7003;67783;51.656;16.106;2023-04-24T12:04:47;0;0;0
77538;PMS7003;67783;51.656;16.106;2023-04-24T12:07:49;0;0;0
77538;PMS7003;67783;51.656;16.106;2023-04-24T12:10:51;0;0;0
77538;PMS7003;67783;51.656;16.106;2023-04-24T12:13:55;0;0;0
77538;PMS7003;67783;51.656;16.106;2023-04-24T12:16:57;0;0;0
77538;PMS7003;67783;51.656;16.106;2023-04-24T12:19:59;0;0;0
77538;PMS7003;67783;51.656;16.106;2023-04-24T12:23:06;1;0;0
77538;PMS7003;67783;51.656;16.106;2023-04-24T12:26:07;0;0;0
77538;PMS7003;67783;51.656;16.106;2023-04-24T12:32:24;0;0;0
77538;PMS7003;67783;51.656;16.106;2023-04-24T12:35:29;0;0;0
77538;PMS7003;67783;51.656;16.106;2023-04-24T12:38:43;0;0;0
77538;PMS7003;67783;51.656;16.106;2023-04-24T12:41:50;3;2;1
77538;PMS7003;67783;51.656;16.106;2023-04-24T12:44:58;0;0;0
77538;PMS7003;67783;51.656;16.106;2023-04-24T12:48:09;0;0;0
77538;PMS7003;67783;51.656;16.106;2023-04-24T12:51:10;0;0;0
77538;PMS7003;67783;51.656;16.106;2023-04-24T12:54:12;2;2;2
77538;PMS7003;67783;51.656;16.106;2023-04-24T12:57:14;3;2;1
77538;PMS7003;67783;51.656;16.106;2023-04-24T13:00:16;3;3;2
77538;PMS7003;67783;51.656;16.106;2023-04-24T13:03:18;2;2;1
77538;PMS7003;67783;51.656;16.106;2023-04-24T13:06:20;1;0;0
77538;PMS7003;67783;51.656;16.106;2023-04-24T13:09:25;7;6;4
77538;PMS7003;67783;51.656;16.106;2023-04-24T13:12:27;8;5;3
77538;PMS7003;67783;51.656;16.106;2023-04-24T13:15:28;2;2;1
77538;PMS7003;67783;51.656;16.106;2023-04-24T13:18:30;4;2;1
77538;PMS7003;67783;51.656;16.106;2023-04-24T13:21:32;2;1;1
77538;PMS7003;67783;51.656;16.106;2023-04-24T13:24:33;3;1;1
77538;PMS7003;67783;51.656;16.106;2023-04-24T13:27:35;2;2;1
77538;PMS7003;67783;51.656;16.106;2023-04-24T13:30:40;6;3;2
77538;PMS7003;67783;51.656;16.106;2023-04-24T13:33:42;0;0;0
77538;PMS7003;67783;51.656;16.106;2023-04-24T13:36:43;6;4;2
77538;PMS7003;67783;51.656;16.106;2023-04-24T13:39:45;5;4;3
77538;PMS7003;67783;51.656;16.106;2023-04-24T13:42:46;3;3;2
77538;PMS7003;67783;51.656;16.106;2023-04-24T13:45:48;1;1;1
77538;PMS7003;67783;51.656;16.106;2023-04-24T13:48:50;2;0;0
77538;PMS7003;67783;51.656;16.106;2023-04-24T13:51:55;2;2;2
77538;PMS7003;67783;51.656;16.106;2023-04-24T13:54:57;1;1;0
77538;PMS7003;67783;51.656;16.106;2023-04-24T13:57:58;0;0;0
77538;PMS7003;67783;51.656;16.106;2023-04-24T14:01:01;2;1;0
77538;PMS7003;67783;51.656;16.106;2023-04-24T14:04:04;1;1;0
77538;PMS7003;67783;51.656;16.106;2023-04-24T14:07:15;0;0;0
77538;PMS7003;67783;51.656;16.106;2023-04-24T14:10:16;0;0;0
77538;PMS7003;67783;51.656;16.106;2023-04-24T14:13:18;0;0;0
77538;PMS7003;67783;51.656;16.106;2023-04-24T14:16:21;0;0;0
77538;PMS7003;67783;51.656;16.106;2023-04-24T14:19:22;0;0;0
77538;PMS7003;67783;51.656;16.106;2023-04-24T14:22:24;0;0;0
77538;PMS7003;67783;51.656;16.106;2023-04-24T14:25:26;0;0;0
77538;PMS7003;67783;51.656;16.106;2023-04-24T14:28:32;0;0;0
77538;PMS7003;67783;51.656;16.106;2023-04-24T14:31:33;0;0;0
77538;PMS7003;67783;51.656;16.106;2023-04-24T14:34:35;0;0;0
77538;PMS7003;67783;51.656;16.106;2023-04-24T14:38:20;0;0;0
77538;PMS7003;67783;51.656;16.106;2023-04-24T14:41:22;0;0;0
77538;PMS7003;67783;51.656;16.106;2023-04-24T14:44:24;0;0;0
77538;PMS7003;67783;51.656;16.106;2023-04-24T14:47:26;0;0;0
77538;PMS7003;67783;51.656;16.106;2023-04-24T14:50:29;0;0;0
77538;PMS7003;67783;51.656;16.106;2023-04-24T14:53:31;1;0;0
77538;PMS7003;67783;51.656;16.106;2023-04-24T14:56:36;0;0;0
77538;PMS7003;67783;51.656;16.106;2023-04-24T14:59:40;1;0;0
77538;PMS7003;67783;51.656;16.106;2023-04-24T15:02:41;0;0;0
77538;PMS7003;67783;51.656;16.106;2023-04-24T15:05:45;0;0;0
77538;PMS7003;67783;51.656;16.106;2023-04-24T15:08:47;0;0;0
77538;PMS7003;67783;51.656;16.106;2023-04-24T15:11:56;0;0;0
77538;PMS7003;67783;51.656;16.106;2023-04-24T15:14:58;0;0;0
77538;PMS7003;67783;51.656;16.106;2023-04-24T15:18:00;0;0;0
77538;PMS7003;67783;51.656;16.106;2023-04-24T15:21:02;0;0;0
77538;PMS7003;67783;51.656;16.106;2023-04-24T15:24:04;1;0;0
77538;PMS7003;67783;51.656;16.106;2023-04-24T15:27:08;0;0;0
77538;PMS7003;67783;51.656;16.106;2023-04-24T15:30:12;0;0;0
77538;PMS7003;67783;51.656;16.106;2023-04-24T15:33:16;0;0;0
77538;PMS7003;67783;51.656;16.106;2023-04-24T15:36:18;0;0;0
77538;PMS7003;67783;51.656;16.106;2023-04-24T15:39:22;0;0;0
77538;PMS7003;67783;51.656;16.106;2023-04-24T15:42:25;0;0;0
77538;PMS7003;67783;51.656;16.106;2023-04-24T15:45:28;1;1;1
77538;PMS7003;67783;51.656;16.106;2023-04-24T15:48:37;1;1;1
77538;PMS7003;67783;51.656;16.106;2023-04-24T15:51:41;0;0;0
77538;PMS7003;67783;51.656;16.106;2023-04-24T15:54:43;0;0;0
77538;PMS7003;67783;51.656;16.106;2023-04-24T15:57:44;0;0;0
77538;PMS7003;67783;51.656;16.106;2023-04-24T16:00:46;0;0;0
77538;PMS7003;67783;51.656;16.106;2023-04-24T16:03:57;0;0;0
77538;PMS7003;67783;51.656;16.106;2023-04-24T16:06:59;3;1;0
77538;PMS7003;67783;51.656;16.106;2023-04-24T16:10:01;0;0;0
77538;PMS7003;67783;51.656;16.106;2023-04-24T16:13:02;0;0;0
77538;PMS7003;67783;51.656;16.106;2023-04-24T16:16:05;1;1;1
77538;PMS7003;67783;51.656;16.106;2023-04-24T16:19:07;4;0;0
77538;PMS7003;67783;51.656;16.106;2023-04-24T16:22:09;3;3;2
77538;PMS7003;67783;51.656;16.106;2023-04-24T16:25:14;2;2;1
77538;PMS7003;67783;51.656;16.106;2023-04-24T16:28:16;3;3;2
77538;PMS7003;67783;51.656;16.106;2023-04-24T16:31:17;2;2;1
77538;PMS7003;67783;51.656;16.106;2023-04-24T16:34:19;1;1;1
77538;PMS7003;67783;51.656;16.106;2023-04-24T16:37:21;1;1;1
77538;PMS7003;67783;51.656;16.106;2023-04-24T16:40:22;0;0;0
77538;PMS7003;67783;51.656;16.106;2023-04-24T16:43:24;0;0;0
77538;PMS7003;67783;51.656;16.106;2023-04-24T16:46:29;6;0;0
77538;PMS7003;67783;51.656;16.106;2023-04-24T16:49:30;0;0;0
77538;PMS7003;67783;51.656;16.106;2023-04-24T16:52:32;1;0;0
77538;PMS7003;67783;51.656;16.106;2023-04-24T16:55:34;1;1;1
77538;PMS7003;67783;51.656;16.106;2023-04-24T16:58:35;0;0;0
77538;PMS7003;67783;51.656;16.106;2023-04-24T17:01:37;1;1;1
77538;PMS7003;67783;51.656;16.106;2023-04-24T17:04:39;4;2;1
77538;PMS7003;67783;51.656;16.106;2023-04-24T17:07:44;2;2;2
77538;PMS7003;67783;51.656;16.106;2023-04-24T17:10:45;3;2;2
77538;PMS7003;67783;51.656;16.106;2023-04-24T17:13:47;4;3;2
77538;PMS7003;67783;51.656;16.106;2023-04-24T17:16:48;2;2;2
77538;PMS7003;67783;51.656;16.106;2023-04-24T17:19:50;3;1;1
77538;PMS7003;67783;51.656;16.106;2023-04-24T17:22:52;2;2;1
77538;PMS7003;67783;51.656;16.106;2023-04-24T17:25:54;2;2;1
77538;PMS7003;67783;51.656;16.106;2023-04-24T17:28:59;2;2;1
77538;PMS7003;67783;51.656;16.106;2023-04-24T17:32:00;1;1;1
77538;PMS7003;67783;51.656;16.106;2023-04-24T17:35:03;1;1;1
77538;PMS7003;67783;51.656;16.106;2023-04-24T17:38:06;2;2;1
77538;PMS7003;67783;51.656;16.106;2023-04-24T17:41:07;2;2;2
77538;PMS7003;67783;51.656;16.106;2023-04-24T17:44:19;1;1;1
77538;PMS7003;67783;51.656;16.106;2023-04-24T17:47:21;1;1;1
77538;PMS7003;67783;51.656;16.106;2023-04-24T17:50:26;1;1;1
77538;PMS7003;67783;51.656;16.106;2023-04-24T17:53:28;2;1;1
77538;PMS7003;67783;51.656;16.106;2023-04-24T17:56:30;1;1;1
77538;PMS7003;67783;51.656;16.106;2023-04-24T17:59:40;2;2;2
77538;PMS7003;67783;51.656;16.106;2023-04-24T18:02:41;1;1;0
77538;PMS7003;67783;51.656;16.106;2023-04-24T18:05:43;2;1;1
77538;PMS7003;67783;51.656;16.106;2023-04-24T18:08:44;2;2;2
77538;PMS7003;67783;51.656;16.106;2023-04-24T18:11:46;2;2;1
77538;PMS7003;67783;51.656;16.106;2023-04-24T18:14:49;2;2;1
77538;PMS7003;67783;51.656;16.106;2023-04-24T18:17:51;3;2;1
77538;PMS7003;67783;51.656;16.106;2023-04-24T18:20:56;7;7;4
77538;PMS7003;67783;51.656;16.106;2023-04-24T18:23:57;6;4;3
77538;PMS7003;67783;51.656;16.106;2023-04-24T18:27:00;8;8;7
77538;PMS7003;67783;51.656;16.106;2023-04-24T18:30:03;9;9;6
77538;PMS7003;67783;51.656;16.106;2023-04-24T18:33:06;11;9;7
77538;PMS7003;67783;51.656;16.106;2023-04-24T18:36:16;6;5;4
77538;PMS7003;67783;51.656;16.106;2023-04-24T18:39:18;9;8;8
77538;PMS7003;67783;51.656;16.106;2023-04-24T18:42:20;6;5;4
77538;PMS7003;67783;51.656;16.106;2023-04-24T18:45:22;5;5;3
77538;PMS7003;67783;51.656;16.106;2023-04-24T18:48:24;4;4;2
77538;PMS7003;67783;51.656;16.106;2023-04-24T18:51:37;4;4;3
77538;PMS7003;67783;51.656;16.106;2023-04-24T18:54:39;2;1;1
77538;PMS7003;67783;51.656;16.106;2023-04-24T18:57:41;1;1;1
77538;PMS7003;67783;51.656;16.106;2023-04-24T19:00:42;1;1;1
77538;PMS7003;67783;51.656;16.106;2023-04-24T19:03:44;3;2;2
77538;PMS7003;67783;51.656;16.106;2023-04-24T19:06:45;7;5;3
77538;PMS7003;67783;51.656;16.106;2023-04-24T19:09:47;5;3;3
77538;PMS7003;67783;51.656;16.106;2023-04-24T19:12:52;1;1;0
77538;PMS7003;67783;51.656;16.106;2023-04-24T19:15:56;3;3;3
77538;PMS7003;67783;51.656;16.106;2023-04-24T19:18:58;3;3;3
77538;PMS7003;67783;51.656;16.106;2023-04-24T19:22:00;2;2;2
77538;PMS7003;67783;51.656;16.106;2023-04-24T19:25:02;3;3;2
77538;PMS7003;67783;51.656;16.106;2023-04-24T19:28:12;4;3;2
77538;PMS7003;67783;51.656;16.106;2023-04-24T19:31:14;4;3;3
77538;PMS7003;67783;51.656;16.106;2023-04-24T19:34:15;4;3;2
77538;PMS7003;67783;51.656;16.106;2023-04-24T19:37:17;0;0;0
77538;PMS7003;67783;51.656;16.106;2023-04-24T19:40:19;2;1;1
77538;PMS7003;67783;51.656;16.106;2023-04-24T19:43:20;1;1;1
77538;PMS7003;67783;51.656;16.106;2023-04-24T19:46:22;3;2;1
77538;PMS7003;67783;51.656;16.106;2023-04-24T19:49:27;2;2;1
77538;PMS7003;67783;51.656;16.106;2023-04-24T19:52:28;2;2;1
77538;PMS7003;67783;51.656;16.106;2023-04-24T19:55:30;2;2;1
77538;PMS7003;67783;51.656;16.106;2023-04-24T19:58:32;2;1;1
77538;PMS7003;67783;51.656;16.106;2023-04-24T20:01:33;1;1;1
77538;PMS7003;67783;51.656;16.106;2023-04-24T20:04:35;1;1;1
77538;PMS7003;67783;51.656;16.106;2023-04-24T20:07:36;1;1;0
77538;PMS7003;67783;51.656;16.106;2023-04-24T20:10:42;1;0;0
77538;PMS7003;67783;51.656;16.106;2023-04-24T20:13:45;0;0;0
77538;PMS7003;67783;51.656;16.106;2023-04-24T20:16:47;0;0;0
77538;PMS7003;67783;51.656;16.106;2023-04-24T20:19:50;1;1;0
77538;PMS7003;67783;51.656;16.106;2023-04-24T20:22:51;0;0;0
77538;PMS7003;67783;51.656;16.106;2023-04-24T20:26:02;0;0;0
77538;PMS7003;67783;51.656;16.106;2023-04-24T20:29:04;0;0;0
77538;PMS7003;67783;51.656;16.106;2023-04-24T20:32:08;0;0;0
77538;PMS7003;67783;51.656;16.106;2023-04-24T20:35:09;0;0;0
77538;PMS7003;67783;51.656;16.106;2023-04-24T20:38:14;1;1;0